sensor_id;sensor_type;location;lat;lon;timestamp;pressure;altitude;pressure_sealevel;temperature;humidity
55460;BME280;41326;45.302;-122.946;2023-07-16T00:00:28;100822.40;;;22.39;42.24
55460;BME280;41326;45.302;-122.946;2023-07-16T00:02:59;100824.02;;;22.32;41.90
55460;BME280;41326;45.302;-122.946;2023-07-16T00:05:29;100826.06;;;22.39;42.13
55460;BME280;41326;45.302;-122.946;2023-07-16T00:07:59;100821.63;;;22.33;41.60
55460;BME280;41326;45.302;-122.946;2023-07-16T00:10:29;100819.56;;;22.36;42.18
55460;BME280;41326;45.302;-122.946;2023-07-16T00:13:00;100818.35;;;22.33;42.07
55460;BME280;41326;45.302;-122.946;2023-07-16T00:15:30;100821.27;;;22.38;41.55
55460;BME280;41326;45.302;-122.946;2023-07-16T00:18:00;100819.24;;;22.38;41.23
55460;BME280;41326;45.302;-122.946;2023-07-16T00:20:31;100816.60;;;22.39;41.28
55460;BME280;41326;45.302;-122.946;2023-07-16T00:23:01;100815.30;;;22.32;41.08
55460;BME280;41326;45.302;-122.946;2023-07-16T00:25:31;100818.65;;;22.30;41.53
55460;BME280;41326;45.302;-122.946;2023-07-16T00:28:02;100821.67;;;22.24;41.71
55460;BME280;41326;45.302;-122.946;2023-07-16T00:30:31;100812.37;;;22.26;41.44
55460;BME280;41326;45.302;-122.946;2023-07-16T00:33:02;100814.20;;;22.23;41.22
55460;BME280;41326;45.302;-122.946;2023-07-16T00:35:32;100820.03;;;22.24;41.21
55460;BME280;41326;45.302;-122.946;2023-07-16T00:38:02;100818.02;;;22.22;41.03
55460;BME280;41326;45.302;-122.946;2023-07-16T00:40:33;100822.29;;;22.18;41.08
55460;BME280;41326;45.302;-122.946;2023-07-16T00:43:03;100822.00;;;22.18;41.19
55460;BME280;41326;45.302;-122.946;2023-07-16T00:45:34;100814.35;;;22.17;40.86
55460;BME280;41326;45.302;-122.946;2023-07-16T00:48:05;100814.77;;;22.19;40.83
55460;BME280;41326;45.302;-122.946;2023-07-16T00:50:34;100818.09;;;22.16;41.09
55460;BME280;41326;45.302;-122.946;2023-07-16T00:53:05;100811.04;;;22.13;40.97
55460;BME280;41326;45.302;-122.946;2023-07-16T00:55:35;100805.58;;;22.11;40.74
55460;BME280;41326;45.302;-122.946;2023-07-16T00:58:07;100808.56;;;22.11;40.74
55460;BME280;41326;45.302;-122.946;2023-07-16T01:00:37;100806.02;;;22.11;40.66
55460;BME280;41326;45.302;-122.946;2023-07-16T01:03:07;100811.38;;;22.02;41.00
55460;BME280;41326;45.302;-122.946;2023-07-16T01:05:42;100808.22;;;21.95;41.04
55460;BME280;41326;45.302;-122.946;2023-07-16T01:08:10;100798.54;;;21.98;41.14
55460;BME280;41326;45.302;-122.946;2023-07-16T01:10:38;100797.03;;;21.97;40.32
55460;BME280;41326;45.302;-122.946;2023-07-16T01:13:09;100795.25;;;21.96;40.89
55460;BME280;41326;45.302;-122.946;2023-07-16T01:15:38;100793.29;;;21.96;41.12
55460;BME280;41326;45.302;-122.946;2023-07-16T01:18:10;100799.69;;;21.93;40.93
55460;BME280;41326;45.302;-122.946;2023-07-16T01:20:39;100802.68;;;21.90;41.14
55460;BME280;41326;45.302;-122.946;2023-07-16T01:25:53;100799.94;;;21.92;40.27
55460;BME280;41326;45.302;-122.946;2023-07-16T01:28:22;100805.09;;;21.85;40.71
55460;BME280;41326;45.302;-122.946;2023-07-16T01:30:43;100802.71;;;21.83;40.57
55460;BME280;41326;45.302;-122.946;2023-07-16T01:33:13;100798.54;;;21.85;40.51
55460;BME280;41326;45.302;-122.946;2023-07-16T01:35:42;100789.40;;;21.84;40.38
55460;BME280;41326;45.302;-122.946;2023-07-16T01:38:13;100792.29;;;21.81;40.51
55460;BME280;41326;45.302;-122.946;2023-07-16T01:40:42;100792.30;;;21.79;40.20
55460;BME280;41326;45.302;-122.946;2023-07-16T01:43:13;100794.30;;;21.77;40.19
55460;BME280;41326;45.302;-122.946;2023-07-16T01:45:43;100801.78;;;21.75;40.19
55460;BME280;41326;45.302;-122.946;2023-07-16T01:48:24;100800.80;;;21.74;40.70
55460;BME280;41326;45.302;-122.946;2023-07-16T01:50:44;100800.53;;;21.72;40.22
55460;BME280;41326;45.302;-122.946;2023-07-16T01:53:14;100801.88;;;21.71;40.53
55460;BME280;41326;45.302;-122.946;2023-07-16T01:55:45;100804.07;;;21.65;40.58
55460;BME280;41326;45.302;-122.946;2023-07-16T01:58:16;100803.90;;;21.61;40.49
55460;BME280;41326;45.302;-122.946;2023-07-16T02:00:47;100802.88;;;21.62;40.53
55460;BME280;41326;45.302;-122.946;2023-07-16T02:03:16;100807.12;;;21.61;40.60
55460;BME280;41326;45.302;-122.946;2023-07-16T02:05:47;100807.30;;;21.57;40.24
55460;BME280;41326;45.302;-122.946;2023-07-16T02:08:17;100814.83;;;21.56;40.45
55460;BME280;41326;45.302;-122.946;2023-07-16T02:10:47;100816.25;;;21.57;40.38
55460;BME280;41326;45.302;-122.946;2023-07-16T02:13:17;100815.26;;;21.53;40.27
55460;BME280;41326;45.302;-122.946;2023-07-16T02:15:48;100817.29;;;21.50;40.34
55460;BME280;41326;45.302;-122.946;2023-07-16T02:18:18;100825.07;;;21.51;40.05
55460;BME280;41326;45.302;-122.946;2023-07-16T02:20:49;100820.89;;;21.50;39.87
55460;BME280;41326;45.302;-122.946;2023-07-16T02:23:18;100817.11;;;21.55;40.27
55460;BME280;41326;45.302;-122.946;2023-07-16T02:25:49;100812.46;;;21.59;40.04
55460;BME280;41326;45.302;-122.946;2023-07-16T02:28:20;100812.36;;;21.50;40.03
55460;BME280;41326;45.302;-122.946;2023-07-16T02:30:50;100809.95;;;21.41;40.46
55460;BME280;41326;45.302;-122.946;2023-07-16T02:33:20;100808.65;;;21.46;40.21
55460;BME280;41326;45.302;-122.946;2023-07-16T02:35:52;100810.07;;;21.45;40.95
55460;BME280;41326;45.302;-122.946;2023-07-16T02:38:21;100815.48;;;21.45;40.53
55460;BME280;41326;45.302;-122.946;2023-07-16T02:40:52;100822.18;;;21.43;40.56
55460;BME280;41326;45.302;-122.946;2023-07-16T02:43:21;100826.19;;;21.38;40.63
55460;BME280;41326;45.302;-122.946;2023-07-16T02:45:52;100829.59;;;21.37;40.99
55460;BME280;41326;45.302;-122.946;2023-07-16T02:48:23;100829.99;;;21.38;41.17
55460;BME280;41326;45.302;-122.946;2023-07-16T02:50:53;100840.25;;;21.65;41.47
55460;BME280;41326;45.302;-122.946;2023-07-16T02:53:23;100848.59;;;21.87;41.42
55460;BME280;41326;45.302;-122.946;2023-07-16T02:55:53;100848.37;;;22.01;40.54
55460;BME280;41326;45.302;-122.946;2023-07-16T02:58:24;100851.91;;;22.00;39.61
55460;BME280;41326;45.302;-122.946;2023-07-16T03:00:55;100856.33;;;21.94;39.15
55460;BME280;41326;45.302;-122.946;2023-07-16T03:03:26;100860.43;;;21.81;39.34
55460;BME280;41326;45.302;-122.946;2023-07-16T03:05:57;100858.39;;;21.72;39.45
55460;BME280;41326;45.302;-122.946;2023-07-16T03:08:26;100853.86;;;21.63;39.60
55460;BME280;41326;45.302;-122.946;2023-07-16T03:10:56;100849.29;;;21.79;40.62
55460;BME280;41326;45.302;-122.946;2023-07-16T03:13:27;100843.39;;;21.99;40.64
55460;BME280;41326;45.302;-122.946;2023-07-16T03:15:57;100844.75;;;22.05;39.57
55460;BME280;41326;45.302;-122.946;2023-07-16T03:18:28;100839.13;;;22.00;39.31
55460;BME280;41326;45.302;-122.946;2023-07-16T03:20:58;100835.96;;;22.00;38.69
55460;BME280;41326;45.302;-122.946;2023-07-16T03:23:29;100834.25;;;21.86;38.58
55460;BME280;41326;45.302;-122.946;2023-07-16T03:25:59;100835.47;;;21.69;39.26
55460;BME280;41326;45.302;-122.946;2023-07-16T03:28:29;100838.81;;;21.60;39.25
55460;BME280;41326;45.302;-122.946;2023-07-16T03:31:01;100836.49;;;21.55;39.26
55460;BME280;41326;45.302;-122.946;2023-07-16T03:33:30;100832.62;;;21.42;39.32
55460;BME280;41326;45.302;-122.946;2023-07-16T03:36:01;100835.01;;;21.30;39.35
55460;BME280;41326;45.302;-122.946;2023-07-16T03:38:31;100833.24;;;21.27;39.38
55460;BME280;41326;45.302;-122.946;2023-07-16T03:41:01;100831.03;;;21.20;39.53
55460;BME280;41326;45.302;-122.946;2023-07-16T03:43:31;100834.42;;;21.02;39.70
55460;BME280;41326;45.302;-122.946;2023-07-16T03:46:01;100833.38;;;20.99;39.57
55460;BME280;41326;45.302;-122.946;2023-07-16T03:48:31;100834.82;;;20.98;39.82
55460;BME280;41326;45.302;-122.946;2023-07-16T03:51:02;100833.05;;;20.98;39.31
55460;BME280;41326;45.302;-122.946;2023-07-16T03:53:33;100840.94;;;20.95;39.69
55460;BME280;41326;45.302;-122.946;2023-07-16T03:56:02;100847.96;;;20.94;39.63
55460;BME280;41326;45.302;-122.946;2023-07-16T03:58:33;100855.10;;;20.86;39.27
55460;BME280;41326;45.302;-122.946;2023-07-16T04:01:03;100862.68;;;20.82;39.67
55460;BME280;41326;45.302;-122.946;2023-07-16T04:03:34;100866.60;;;20.77;39.40
55460;BME280;41326;45.302;-122.946;2023-07-16T04:06:09;100869.82;;;20.71;39.68
55460;BME280;41326;45.302;-122.946;2023-07-16T04:08:34;100871.13;;;20.66;39.78
55460;BME280;41326;45.302;-122.946;2023-07-16T04:11:04;100875.31;;;20.66;39.90
55460;BME280;41326;45.302;-122.946;2023-07-16T04:13:34;100872.20;;;20.66;39.54
55460;BME280;41326;45.302;-122.946;2023-07-16T04:16:04;100875.26;;;20.66;39.56
55460;BME280;41326;45.302;-122.946;2023-07-16T04:18:34;100879.06;;;20.63;39.32
55460;BME280;41326;45.302;-122.946;2023-07-16T04:21:05;100883.50;;;20.59;39.56
55460;BME280;41326;45.302;-122.946;2023-07-16T04:23:38;100896.04;;;20.56;39.54
55460;BME280;41326;45.302;-122.946;2023-07-16T04:26:06;100900.87;;;20.51;39.60
55460;BME280;41326;45.302;-122.946;2023-07-16T04:28:37;100903.72;;;20.47;39.64
55460;BME280;41326;45.302;-122.946;2023-07-16T04:31:07;100907.53;;;20.40;39.25
55460;BME280;41326;45.302;-122.946;2023-07-16T04:33:38;100911.30;;;20.37;39.59
55460;BME280;41326;45.302;-122.946;2023-07-16T04:36:08;100914.43;;;20.34;39.53
55460;BME280;41326;45.302;-122.946;2023-07-16T04:38:38;100913.85;;;20.33;39.74
55460;BME280;41326;45.302;-122.946;2023-07-16T04:41:08;100915.77;;;20.31;39.85
55460;BME280;41326;45.302;-122.946;2023-07-16T04:43:39;100918.10;;;20.27;39.56
55460;BME280;41326;45.302;-122.946;2023-07-16T04:46:10;100919.07;;;20.24;39.82
55460;BME280;41326;45.302;-122.946;2023-07-16T04:48:40;100929.89;;;20.18;39.76
55460;BME280;41326;45.302;-122.946;2023-07-16T04:51:10;100935.55;;;20.15;40.09
55460;BME280;41326;45.302;-122.946;2023-07-16T04:53:41;100932.54;;;20.20;39.90
55460;BME280;41326;45.302;-122.946;2023-07-16T04:56:16;100938.77;;;20.16;40.04
55460;BME280;41326;45.302;-122.946;2023-07-16T04:58:41;100937.95;;;20.11;39.74
55460;BME280;41326;45.302;-122.946;2023-07-16T05:01:13;100940.98;;;20.06;39.86
55460;BME280;41326;45.302;-122.946;2023-07-16T05:03:42;100946.45;;;20.03;40.43
55460;BME280;41326;45.302;-122.946;2023-07-16T05:06:12;100954.28;;;20.05;40.05
55460;BME280;41326;45.302;-122.946;2023-07-16T05:08:43;100959.24;;;20.04;40.29
55460;BME280;41326;45.302;-122.946;2023-07-16T05:11:13;100960.10;;;20.01;39.74
55460;BME280;41326;45.302;-122.946;2023-07-16T05:13:44;100967.36;;;19.97;39.72
55460;BME280;41326;45.302;-122.946;2023-07-16T05:16:14;100966.33;;;19.93;39.96
55460;BME280;41326;45.302;-122.946;2023-07-16T05:18:45;100963.71;;;19.83;40.54
55460;BME280;41326;45.302;-122.946;2023-07-16T05:21:16;100971.68;;;19.87;40.44
55460;BME280;41326;45.302;-122.946;2023-07-16T05:23:46;100963.43;;;19.85;40.19
55460;BME280;41326;45.302;-122.946;2023-07-16T05:26:16;100967.23;;;19.81;39.93
55460;BME280;41326;45.302;-122.946;2023-07-16T05:28:46;100976.45;;;19.77;40.45
55460;BME280;41326;45.302;-122.946;2023-07-16T05:31:16;100977.29;;;19.83;41.13
55460;BME280;41326;45.302;-122.946;2023-07-16T05:33:47;100970.81;;;20.10;41.25
55460;BME280;41326;45.302;-122.946;2023-07-16T05:36:18;100975.08;;;20.34;40.82
55460;BME280;41326;45.302;-122.946;2023-07-16T05:38:48;100979.04;;;20.33;40.09
55460;BME280;41326;45.302;-122.946;2023-07-16T05:41:18;100982.40;;;20.32;39.67
55460;BME280;41326;45.302;-122.946;2023-07-16T05:43:48;100970.21;;;20.28;38.88
55460;BME280;41326;45.302;-122.946;2023-07-16T05:46:19;100969.73;;;20.09;39.51
55460;BME280;41326;45.302;-122.946;2023-07-16T05:48:49;100974.85;;;20.08;40.80
55460;BME280;41326;45.302;-122.946;2023-07-16T05:51:20;100974.00;;;20.31;41.06
55460;BME280;41326;45.302;-122.946;2023-07-16T05:53:50;100975.82;;;20.49;41.09
55460;BME280;41326;45.302;-122.946;2023-07-16T05:56:20;100976.98;;;20.54;40.42
55460;BME280;41326;45.302;-122.946;2023-07-16T05:58:51;100982.15;;;20.45;39.81
55460;BME280;41326;45.302;-122.946;2023-07-16T06:01:21;100982.72;;;20.42;39.88
55460;BME280;41326;45.302;-122.946;2023-07-16T06:03:51;100979.92;;;20.34;39.71
55460;BME280;41326;45.302;-122.946;2023-07-16T06:06:21;100978.32;;;20.18;39.71
55460;BME280;41326;45.302;-122.946;2023-07-16T06:08:52;100984.37;;;20.28;40.96
55460;BME280;41326;45.302;-122.946;2023-07-16T06:11:23;100990.93;;;20.46;41.15
55460;BME280;41326;45.302;-122.946;2023-07-16T06:13:53;100994.09;;;20.57;40.53
55460;BME280;41326;45.302;-122.946;2023-07-16T06:16:23;101001.04;;;20.49;39.82
55460;BME280;41326;45.302;-122.946;2023-07-16T06:18:54;100993.86;;;20.44;39.82
55460;BME280;41326;45.302;-122.946;2023-07-16T06:21:24;100997.58;;;20.58;40.52
55460;BME280;41326;45.302;-122.946;2023-07-16T06:23:54;101000.82;;;20.70;41.27
55460;BME280;41326;45.302;-122.946;2023-07-16T06:26:24;101000.45;;;20.81;42.17
55460;BME280;41326;45.302;-122.946;2023-07-16T06:28:54;101006.69;;;20.90;41.96
55460;BME280;41326;45.302;-122.946;2023-07-16T06:31:24;101008.94;;;20.97;41.90
55460;BME280;41326;45.302;-122.946;2023-07-16T06:33:55;101004.70;;;21.00;42.01
55460;BME280;41326;45.302;-122.946;2023-07-16T06:36:26;101008.34;;;21.07;41.90
55460;BME280;41326;45.302;-122.946;2023-07-16T06:38:56;101013.33;;;20.98;40.87
55460;BME280;41326;45.302;-122.946;2023-07-16T06:41:26;101018.78;;;20.83;39.79
55460;BME280;41326;45.302;-122.946;2023-07-16T06:43:56;101032.46;;;20.70;39.73
55460;BME280;41326;45.302;-122.946;2023-07-16T06:46:27;101030.24;;;20.49;40.19
55460;BME280;41326;45.302;-122.946;2023-07-16T06:48:57;101027.47;;;20.40;41.47
55460;BME280;41326;45.302;-122.946;2023-07-16T06:52:37;101034.49;;;20.61;41.87
55460;BME280;41326;45.302;-122.946;2023-07-16T06:55:07;101033.13;;;20.73;41.82
55460;BME280;41326;45.302;-122.946;2023-07-16T06:57:38;101021.09;;;20.86;41.72
55460;BME280;41326;45.302;-122.946;2023-07-16T07:00:08;101032.43;;;20.85;40.64
55460;BME280;41326;45.302;-122.946;2023-07-16T07:02:39;101033.16;;;20.80;40.27
55460;BME280;41326;45.302;-122.946;2023-07-16T07:05:09;101032.62;;;20.64;40.11
55460;BME280;41326;45.302;-122.946;2023-07-16T07:07:39;101029.70;;;20.49;40.70
55460;BME280;41326;45.302;-122.946;2023-07-16T07:10:11;101032.16;;;20.59;41.40
55460;BME280;41326;45.302;-122.946;2023-07-16T07:12:40;101038.16;;;20.70;41.46
55460;BME280;41326;45.302;-122.946;2023-07-16T07:15:11;101034.56;;;20.83;41.41
55460;BME280;41326;45.302;-122.946;2023-07-16T07:17:40;101038.51;;;20.90;41.45
55460;BME280;41326;45.302;-122.946;2023-07-16T07:20:12;101032.88;;;20.99;41.40
55460;BME280;41326;45.302;-122.946;2023-07-16T07:22:40;101036.83;;;21.07;41.58
55460;BME280;41326;45.302;-122.946;2023-07-16T07:25:11;101034.05;;;21.15;42.65
55460;BME280;41326;45.302;-122.946;2023-07-16T07:27:41;101038.46;;;21.19;42.71
55460;BME280;41326;45.302;-122.946;2023-07-16T07:30:12;101031.03;;;21.22;42.64
55460;BME280;41326;45.302;-122.946;2023-07-16T07:32:43;101034.11;;;21.24;42.70
55460;BME280;41326;45.302;-122.946;2023-07-16T07:35:12;101032.51;;;21.26;42.70
55460;BME280;41326;45.302;-122.946;2023-07-16T07:37:43;101031.56;;;21.26;41.47
55460;BME280;41326;45.302;-122.946;2023-07-16T07:40:13;101031.59;;;21.13;40.35
55460;BME280;41326;45.302;-122.946;2023-07-16T07:42:42;101037.21;;;20.96;41.82
55460;BME280;41326;45.302;-122.946;2023-07-16T07:45:14;101039.64;;;20.99;43.19
55460;BME280;41326;45.302;-122.946;2023-07-16T07:47:43;101038.10;;;21.04;43.50
55460;BME280;41326;45.302;-122.946;2023-07-16T07:50:14;101046.33;;;21.04;43.54
55460;BME280;41326;45.302;-122.946;2023-07-16T07:52:44;101043.98;;;21.09;43.52
55460;BME280;41326;45.302;-122.946;2023-07-16T07:55:14;101048.48;;;21.12;43.55
55460;BME280;41326;45.302;-122.946;2023-07-16T07:57:44;101046.69;;;21.19;43.44
55460;BME280;41326;45.302;-122.946;2023-07-16T08:00:16;101049.10;;;21.26;43.32
55460;BME280;41326;45.302;-122.946;2023-07-16T08:02:46;101050.95;;;21.27;43.67
55460;BME280;41326;45.302;-122.946;2023-07-16T08:05:16;101057.76;;;21.31;44.35
55460;BME280;41326;45.302;-122.946;2023-07-16T08:07:46;101056.81;;;21.34;44.51
55460;BME280;41326;45.302;-122.946;2023-07-16T08:10:16;101058.69;;;21.33;43.09
55460;BME280;41326;45.302;-122.946;2023-07-16T08:12:49;101057.60;;;21.23;41.50
55460;BME280;41326;45.302;-122.946;2023-07-16T08:15:19;101058.54;;;21.04;42.83
55460;BME280;41326;45.302;-122.946;2023-07-16T08:17:51;101057.54;;;21.07;43.44
55460;BME280;41326;45.302;-122.946;2023-07-16T08:20:20;101061.01;;;21.09;43.64
55460;BME280;41326;45.302;-122.946;2023-07-16T08:22:50;101059.35;;;21.14;44.16
55460;BME280;41326;45.302;-122.946;2023-07-16T08:25:21;101060.51;;;21.20;44.58
55460;BME280;41326;45.302;-122.946;2023-07-16T08:27:51;101059.53;;;21.26;44.73
55460;BME280;41326;45.302;-122.946;2023-07-16T08:30:22;101060.68;;;21.24;44.78
55460;BME280;41326;45.302;-122.946;2023-07-16T08:32:52;101062.46;;;21.25;44.79
55460;BME280;41326;45.302;-122.946;2023-07-16T08:35:22;101062.39;;;21.29;44.74
55460;BME280;41326;45.302;-122.946;2023-07-16T08:37:52;101060.59;;;21.34;44.65
55460;BME280;41326;45.302;-122.946;2023-07-16T08:40:22;101061.82;;;21.35;44.64
55460;BME280;41326;45.302;-122.946;2023-07-16T08:42:53;101066.61;;;21.36;45.10
55460;BME280;41326;45.302;-122.946;2023-07-16T08:45:25;101067.38;;;21.40;45.57
55460;BME280;41326;45.302;-122.946;2023-07-16T08:47:53;101068.41;;;21.41;45.73
55460;BME280;41326;45.302;-122.946;2023-07-16T08:50:24;101068.96;;;21.39;45.75
55460;BME280;41326;45.302;-122.946;2023-07-16T08:52:54;101069.47;;;21.41;45.69
55460;BME280;41326;45.302;-122.946;2023-07-16T08:55:24;101071.43;;;21.37;45.77
55460;BME280;41326;45.302;-122.946;2023-07-16T08:57:54;101074.39;;;21.37;45.81
55460;BME280;41326;45.302;-122.946;2023-07-16T09:00:24;101071.73;;;21.39;45.78
55460;BME280;41326;45.302;-122.946;2023-07-16T09:02:55;101071.60;;;21.42;46.02
55460;BME280;41326;45.302;-122.946;2023-07-16T09:05:25;101071.43;;;21.45;46.46
55460;BME280;41326;45.302;-122.946;2023-07-16T09:07:55;101068.73;;;21.49;46.48
55460;BME280;41326;45.302;-122.946;2023-07-16T09:10:25;101068.47;;;21.51;46.40
55460;BME280;41326;45.302;-122.946;2023-07-16T09:12:57;101065.25;;;21.48;46.43
55460;BME280;41326;45.302;-122.946;2023-07-16T09:15:27;101064.12;;;21.47;46.53
55460;BME280;41326;45.302;-122.946;2023-07-16T09:17:56;101063.16;;;21.45;46.55
55460;BME280;41326;45.302;-122.946;2023-07-16T09:20:27;101063.95;;;21.44;45.47
55460;BME280;41326;45.302;-122.946;2023-07-16T09:23:00;101067.73;;;21.44;44.37
55460;BME280;41326;45.302;-122.946;2023-07-16T09:25:31;101068.89;;;21.36;43.48
55460;BME280;41326;45.302;-122.946;2023-07-16T09:28:00;101069.70;;;21.19;41.98
55460;BME280;41326;45.302;-122.946;2023-07-16T09:30:30;101071.52;;;20.85;43.04
55460;BME280;41326;45.302;-122.946;2023-07-16T09:32:58;101068.16;;;20.77;44.70
55460;BME280;41326;45.302;-122.946;2023-07-16T09:35:28;101068.43;;;20.81;45.04
55460;BME280;41326;45.302;-122.946;2023-07-16T09:37:59;101068.37;;;20.90;45.00
55460;BME280;41326;45.302;-122.946;2023-07-16T09:40:29;101068.31;;;20.97;44.95
55460;BME280;41326;45.302;-122.946;2023-07-16T09:43:00;101066.30;;;21.06;45.19
55460;BME280;41326;45.302;-122.946;2023-07-16T09:45:30;101069.73;;;21.15;46.05
55460;BME280;41326;45.302;-122.946;2023-07-16T09:48:00;101069.58;;;21.19;45.96
55460;BME280;41326;45.302;-122.946;2023-07-16T09:50:33;101067.17;;;21.21;45.90
55460;BME280;41326;45.302;-122.946;2023-07-16T09:53:04;101071.16;;;21.24;45.86
55460;BME280;41326;45.302;-122.946;2023-07-16T09:55:31;101076.25;;;21.27;45.83
55460;BME280;41326;45.302;-122.946;2023-07-16T09:58:10;101075.96;;;21.29;45.79
55460;BME280;41326;45.302;-122.946;2023-07-16T10:00:31;101074.66;;;21.30;45.81
55460;BME280;41326;45.302;-122.946;2023-07-16T10:03:01;101073.95;;;21.30;46.25
55460;BME280;41326;45.302;-122.946;2023-07-16T10:05:35;101071.69;;;21.34;46.77
55460;BME280;41326;45.302;-122.946;2023-07-16T10:08:04;101073.05;;;21.31;46.97
55460;BME280;41326;45.302;-122.946;2023-07-16T10:13:04;101075.88;;;21.31;46.93
55460;BME280;41326;45.302;-122.946;2023-07-16T10:15:33;101071.75;;;21.34;46.82
55460;BME280;41326;45.302;-122.946;2023-07-16T10:18:03;101067.63;;;21.33;46.85
55460;BME280;41326;45.302;-122.946;2023-07-16T10:20:35;101070.62;;;21.36;46.78
55460;BME280;41326;45.302;-122.946;2023-07-16T10:25:34;101076.05;;;21.36;47.56
55460;BME280;41326;45.302;-122.946;2023-07-16T10:28:04;101076.62;;;21.35;47.69
55460;BME280;41326;45.302;-122.946;2023-07-16T10:30:36;101079.12;;;21.34;47.64
55460;BME280;41326;45.302;-122.946;2023-07-16T10:33:11;101076.15;;;21.37;47.55
55460;BME280;41326;45.302;-122.946;2023-07-16T10:35:35;101079.35;;;21.39;47.49
55460;BME280;41326;45.302;-122.946;2023-07-16T10:38:06;101081.89;;;21.41;47.43
55460;BME280;41326;45.302;-122.946;2023-07-16T10:40:39;101080.93;;;21.40;47.43
55460;BME280;41326;45.302;-122.946;2023-07-16T10:43:08;101081.54;;;21.37;47.83
55460;BME280;41326;45.302;-122.946;2023-07-16T10:45:37;101084.75;;;21.40;48.06
55460;BME280;41326;45.302;-122.946;2023-07-16T10:48:08;101084.10;;;21.41;48.08
55460;BME280;41326;45.302;-122.946;2023-07-16T10:50:39;101085.29;;;21.41;48.02
55460;BME280;41326;45.302;-122.946;2023-07-16T10:53:10;101084.46;;;21.41;47.99
55460;BME280;41326;45.302;-122.946;2023-07-16T10:55:40;101082.67;;;21.42;47.99
55460;BME280;41326;45.302;-122.946;2023-07-16T10:58:10;101084.41;;;21.40;48.01
55460;BME280;41326;45.302;-122.946;2023-07-16T11:00:43;101087.67;;;21.41;48.01
55460;BME280;41326;45.302;-122.946;2023-07-16T11:03:10;101088.83;;;21.42;48.20
55460;BME280;41326;45.302;-122.946;2023-07-16T11:05:40;101084.39;;;21.41;48.41
55460;BME280;41326;45.302;-122.946;2023-07-16T11:08:10;101086.43;;;21.41;48.49
55460;BME280;41326;45.302;-122.946;2023-07-16T11:10:41;101089.57;;;21.42;48.46
55460;BME280;41326;45.302;-122.946;2023-07-16T11:13:11;101087.16;;;21.42;48.42
55460;BME280;41326;45.302;-122.946;2023-07-16T11:15:41;101090.61;;;21.42;48.44
55460;BME280;41326;45.302;-122.946;2023-07-16T11:18:13;101089.74;;;21.44;48.36
55460;BME280;41326;45.302;-122.946;2023-07-16T11:20:43;101090.32;;;21.45;48.35
55460;BME280;41326;45.302;-122.946;2023-07-16T11:23:16;101090.73;;;21.45;48.52
55460;BME280;41326;45.302;-122.946;2023-07-16T11:25:46;101086.09;;;21.47;48.56
55460;BME280;41326;45.302;-122.946;2023-07-16T11:28:14;101083.86;;;21.44;48.69
55460;BME280;41326;45.302;-122.946;2023-07-16T11:30:44;101088.02;;;21.46;48.66
55460;BME280;41326;45.302;-122.946;2023-07-16T11:33:16;101087.58;;;21.43;48.71
55460;BME280;41326;45.302;-122.946;2023-07-16T11:35:45;101087.89;;;21.39;48.79
55460;BME280;41326;45.302;-122.946;2023-07-16T11:38:17;101087.43;;;21.36;48.85
55460;BME280;41326;45.302;-122.946;2023-07-16T11:40:46;101089.71;;;21.34;48.90
55460;BME280;41326;45.302;-122.946;2023-07-16T11:43:18;101092.08;;;21.37;48.90
55460;BME280;41326;45.302;-122.946;2023-07-16T11:45:52;101094.99;;;21.36;48.98
55460;BME280;41326;45.302;-122.946;2023-07-16T11:48:18;101095.97;;;21.37;48.95
55460;BME280;41326;45.302;-122.946;2023-07-16T11:50:47;101093.02;;;21.37;48.92
55460;BME280;41326;45.302;-122.946;2023-07-16T11:53:17;101093.40;;;21.35;48.98
55460;BME280;41326;45.302;-122.946;2023-07-16T11:55:48;101096.04;;;21.36;48.93
55460;BME280;41326;45.302;-122.946;2023-07-16T11:58:18;101096.47;;;21.37;48.87
55460;BME280;41326;45.302;-122.946;2023-07-16T12:00:49;101095.71;;;21.37;48.85
55460;BME280;41326;45.302;-122.946;2023-07-16T12:03:19;101097.50;;;21.37;48.90
55460;BME280;41326;45.302;-122.946;2023-07-16T12:05:50;101099.46;;;21.32;49.08
55460;BME280;41326;45.302;-122.946;2023-07-16T12:08:20;101097.07;;;21.31;49.13
55460;BME280;41326;45.302;-122.946;2023-07-16T12:10:50;101094.82;;;21.33;49.06
55460;BME280;41326;45.302;-122.946;2023-07-16T12:13:21;101097.46;;;21.33;49.02
55460;BME280;41326;45.302;-122.946;2023-07-16T12:15:51;101096.31;;;21.34;49.00
55460;BME280;41326;45.302;-122.946;2023-07-16T12:18:21;101095.49;;;21.35;48.98
55460;BME280;41326;45.302;-122.946;2023-07-16T12:20:51;101094.15;;;21.34;48.99
55460;BME280;41326;45.302;-122.946;2023-07-16T12:23:22;101093.11;;;21.32;49.06
55460;BME280;41326;45.302;-122.946;2023-07-16T12:25:52;101092.57;;;21.31;49.14
55460;BME280;41326;45.302;-122.946;2023-07-16T12:28:22;101093.81;;;21.31;49.12
55460;BME280;41326;45.302;-122.946;2023-07-16T12:30:53;101100.43;;;21.31;49.11
55460;BME280;41326;45.302;-122.946;2023-07-16T12:33:23;101101.98;;;21.31;49.13
55460;BME280;41326;45.302;-122.946;2023-07-16T12:35:53;101103.83;;;21.34;49.03
55460;BME280;41326;45.302;-122.946;2023-07-16T12:38:24;101106.33;;;21.34;49.01
55460;BME280;41326;45.302;-122.946;2023-07-16T12:40:54;101107.82;;;21.33;49.04
55460;BME280;41326;45.302;-122.946;2023-07-16T12:43:25;101109.68;;;21.30;49.14